sensor_id;sensor_type;location;lat;lon;timestamp;P1;durP1;ratioP1;P2;durP2;ratioP2
14092;SDS011;7123;49.468;10.992;2022-07-10T00:02:18;7.27;;;3.40;;
14092;SDS011;7123;49.468;10.992;2022-07-10T00:04:45;3.50;;;3.30;;
14092;SDS011;7123;49.468;10.992;2022-07-10T00:07:11;3.87;;;3.57;;
14092;SDS011;7123;49.468;10.992;2022-07-10T00:09:38;4.03;;;3.63;;
14092;SDS011;7123;49.468;10.992;2022-07-10T00:12:05;3.70;;;3.50;;
14092;SDS011;7123;49.468;10.992;2022-07-10T00:14:31;3.73;;;3.50;;
14092;SDS011;7123;49.468;10.992;2022-07-10T00:16:58;3.67;;;3.37;;
14092;SDS011;7123;49.468;10.992;2022-07-10T00:19:25;4.13;;;3.73;;
14092;SDS011;7123;49.468;10.992;2022-07-10T00:21:52;3.83;;;3.53;;
14092;SDS011;7123;49.468;10.992;2022-07-10T00:24:18;3.90;;;3.70;;
14092;SDS011;7123;49.468;10.992;2022-07-10T00:26:45;4.53;;;3.77;;
14092;SDS011;7123;49.468;10.992;2022-07-10T00:29:14;4.00;;;3.70;;
14092;SDS011;7123;49.468;10.992;2022-07-10T00:31:41;4.03;;;3.73;;
14092;SDS011;7123;49.468;10.992;2022-07-10T00:34:07;3.80;;;3.60;;
14092;SDS011;7123;49.468;10.992;2022-07-10T00:36:34;4.50;;;4.20;;
14092;SDS011;7123;49.468;10.992;2022-07-10T00:39:01;3.93;;;3.63;;
14092;SDS011;7123;49.468;10.992;2022-07-10T00:41:28;4.37;;;4.07;;
14092;SDS011;7123;49.468;10.992;2022-07-10T00:43:55;4.10;;;3.77;;
14092;SDS011;7123;49.468;10.992;2022-07-10T00:46:24;4.37;;;4.07;;
14092;SDS011;7123;49.468;10.992;2022-07-10T00:48:51;6.13;;;4.13;;
14092;SDS011;7123;49.468;10.992;2022-07-10T00:51:19;4.00;;;3.70;;
14092;SDS011;7123;49.468;10.992;2022-07-10T00:53:48;4.07;;;3.70;;
14092;SDS011;7123;49.468;10.992;2022-07-10T00:56:15;4.50;;;4.20;;
14092;SDS011;7123;49.468;10.992;2022-07-10T00:58:43;4.53;;;4.23;;
14092;SDS011;7123;49.468;10.992;2022-07-10T01:01:11;4.60;;;4.30;;
14092;SDS011;7123;49.468;10.992;2022-07-10T01:03:38;4.30;;;3.90;;
14092;SDS011;7123;49.468;10.992;2022-07-10T01:06:05;5.00;;;4.60;;
14092;SDS011;7123;49.468;10.992;2022-07-10T01:08:32;3.93;;;3.63;;
14092;SDS011;7123;49.468;10.992;2022-07-10T01:11:00;4.63;;;4.23;;
14092;SDS011;7123;49.468;10.992;2022-07-10T01:13:27;7.10;;;4.33;;
14092;SDS011;7123;49.468;10.992;2022-07-10T01:15:54;4.27;;;4.00;;
14092;SDS011;7123;49.468;10.992;2022-07-10T01:18:21;4.77;;;4.47;;
14092;SDS011;7123;49.468;10.992;2022-07-10T01:20:55;4.93;;;4.40;;
14092;SDS011;7123;49.468;10.992;2022-07-10T01:23:22;4.43;;;4.13;;
14092;SDS011;7123;49.468;10.992;2022-07-10T01:25:50;4.37;;;3.97;;
14092;SDS011;7123;49.468;10.992;2022-07-10T01:28:17;4.50;;;4.03;;
14092;SDS011;7123;49.468;10.992;2022-07-10T01:30:47;9.93;;;4.00;;
14092;SDS011;7123;49.468;10.992;2022-07-10T01:33:14;4.63;;;4.27;;
14092;SDS011;7123;49.468;10.992;2022-07-10T01:35:41;5.17;;;4.30;;
14092;SDS011;7123;49.468;10.992;2022-07-10T01:38:08;4.37;;;4.07;;
14092;SDS011;7123;49.468;10.992;2022-07-10T01:40:35;4.20;;;3.90;;
14092;SDS011;7123;49.468;10.992;2022-07-10T01:43:02;4.37;;;4.07;;
14092;SDS011;7123;49.468;10.992;2022-07-10T01:45:28;3.77;;;3.57;;
14092;SDS011;7123;49.468;10.992;2022-07-10T01:47:55;4.33;;;4.00;;
14092;SDS011;7123;49.468;10.992;2022-07-10T01:50:23;3.83;;;3.53;;
14092;SDS011;7123;49.468;10.992;2022-07-10T01:52:50;3.90;;;3.70;;
14092;SDS011;7123;49.468;10.992;2022-07-10T01:55:16;4.40;;;4.00;;
14092;SDS011;7123;49.468;10.992;2022-07-10T01:57:43;3.57;;;3.33;;
14092;SDS011;7123;49.468;10.992;2022-07-10T02:00:10;4.47;;;3.97;;
14092;SDS011;7123;49.468;10.992;2022-07-10T02:02:37;3.90;;;3.67;;
14092;SDS011;7123;49.468;10.992;2022-07-10T02:05:04;4.80;;;3.67;;
14092;SDS011;7123;49.468;10.992;2022-07-10T02:07:31;4.00;;;3.70;;
14092;SDS011;7123;49.468;10.992;2022-07-10T02:09:58;4.37;;;3.67;;
14092;SDS011;7123;49.468;10.992;2022-07-10T02:12:25;7.50;;;3.20;;
14092;SDS011;7123;49.468;10.992;2022-07-10T02:14:51;3.70;;;3.50;;
14092;SDS011;7123;49.468;10.992;2022-07-10T02:17:18;5.30;;;3.43;;
14092;SDS011;7123;49.468;10.992;2022-07-10T02:19:45;4.80;;;3.20;;
14092;SDS011;7123;49.468;10.992;2022-07-10T02:22:11;4.50;;;3.37;;
14092;SDS011;7123;49.468;10.992;2022-07-10T02:24:38;3.73;;;2.97;;
14092;SDS011;7123;49.468;10.992;2022-07-10T02:27:05;5.10;;;3.10;;
14092;SDS011;7123;49.468;10.992;2022-07-10T02:29:31;3.20;;;2.87;;
14092;SDS011;7123;49.468;10.992;2022-07-10T02:31:58;2.57;;;2.47;;
14092;SDS011;7123;49.468;10.992;2022-07-10T02:34:25;2.90;;;2.70;;
14092;SDS011;7123;49.468;10.992;2022-07-10T02:36:52;3.30;;;2.80;;
14092;SDS011;7123;49.468;10.992;2022-07-10T02:39:18;4.03;;;2.83;;
14092;SDS011;7123;49.468;10.992;2022-07-10T02:41:45;4.73;;;3.03;;
14092;SDS011;7123;49.468;10.992;2022-07-10T02:44:12;3.63;;;2.70;;
14092;SDS011;7123;49.468;10.992;2022-07-10T02:46:38;3.47;;;2.60;;
14092;SDS011;7123;49.468;10.992;2022-07-10T02:49:05;3.53;;;2.50;;
14092;SDS011;7123;49.468;10.992;2022-07-10T02:51:32;4.43;;;3.00;;
14092;SDS011;7123;49.468;10.992;2022-07-10T02:53:59;6.57;;;2.80;;
14092;SDS011;7123;49.468;10.992;2022-07-10T02:56:25;4.73;;;2.43;;
14092;SDS011;7123;49.468;10.992;2022-07-10T02:58:52;4.50;;;2.57;;
14092;SDS011;7123;49.468;10.992;2022-07-10T03:01:19;3.47;;;2.90;;
14092;SDS011;7123;49.468;10.992;2022-07-10T03:03:46;3.10;;;2.80;;
14092;SDS011;7123;49.468;10.992;2022-07-10T03:06:13;4.00;;;2.80;;
14092;SDS011;7123;49.468;10.992;2022-07-10T03:08:40;7.10;;;2.63;;
14092;SDS011;7123;49.468;10.992;2022-07-10T03:11:08;2.70;;;2.50;;
14092;SDS011;7123;49.468;10.992;2022-07-10T03:13:35;9.07;;;2.60;;
14092;SDS011;7123;49.468;10.992;2022-07-10T03:16:01;2.83;;;2.50;;
14092;SDS011;7123;49.468;10.992;2022-07-10T03:18:28;4.97;;;2.40;;
14092;SDS011;7123;49.468;10.992;2022-07-10T03:20:55;4.23;;;2.50;;
14092;SDS011;7123;49.468;10.992;2022-07-10T03:23:22;6.07;;;2.67;;
14092;SDS011;7123;49.468;10.992;2022-07-10T03:25:49;7.03;;;2.90;;
14092;SDS011;7123;49.468;10.992;2022-07-10T03:28:16;5.27;;;2.47;;
14092;SDS011;7123;49.468;10.992;2022-07-10T03:30:43;3.60;;;2.50;;
14092;SDS011;7123;49.468;10.992;2022-07-10T03:33:09;2.30;;;1.80;;
14092;SDS011;7123;49.468;10.992;2022-07-10T03:35:36;5.17;;;2.10;;
14092;SDS011;7123;49.468;10.992;2022-07-10T03:38:03;3.63;;;1.93;;
14092;SDS011;7123;49.468;10.992;2022-07-10T03:40:29;3.50;;;1.90;;
14092;SDS011;7123;49.468;10.992;2022-07-10T03:42:56;2.40;;;1.73;;
14092;SDS011;7123;49.468;10.992;2022-07-10T03:45:23;2.50;;;1.80;;
14092;SDS011;7123;49.468;10.992;2022-07-10T03:47:49;2.40;;;1.60;;
14092;SDS011;7123;49.468;10.992;2022-07-10T03:50:16;2.13;;;1.73;;
14092;SDS011;7123;49.468;10.992;2022-07-10T03:52:43;5.47;;;1.83;;
14092;SDS011;7123;49.468;10.992;2022-07-10T03:55:11;3.73;;;2.00;;
14092;SDS011;7123;49.468;10.992;2022-07-10T03:57:38;1.50;;;1.30;;
14092;SDS011;7123;49.468;10.992;2022-07-10T04:00:29;3.40;;;1.40;;
14092;SDS011;7123;49.468;10.992;2022-07-10T04:03:01;6.70;;;1.57;;
14092;SDS011;7123;49.468;10.992;2022-07-10T04:05:29;5.60;;;1.73;;
14092;SDS011;7123;49.468;10.992;2022-07-10T04:07:57;3.63;;;1.50;;
14092;SDS011;7123;49.468;10.992;2022-07-10T04:10:25;4.83;;;1.73;;
14092;SDS011;7123;49.468;10.992;2022-07-10T04:12:52;5.53;;;1.70;;
14092;SDS011;7123;49.468;10.992;2022-07-10T04:15:20;2.30;;;1.30;;
14092;SDS011;7123;49.468;10.992;2022-07-10T04:17:48;3.60;;;1.50;;
14092;SDS011;7123;49.468;10.992;2022-07-10T04:20:15;4.90;;;1.30;;
14092;SDS011;7123;49.468;10.992;2022-07-10T04:22:43;1.97;;;1.23;;
14092;SDS011;7123;49.468;10.992;2022-07-10T04:25:10;1.40;;;1.30;;
14092;SDS011;7123;49.468;10.992;2022-07-10T04:27:37;2.43;;;1.40;;
14092;SDS011;7123;49.468;10.992;2022-07-10T04:30:04;2.73;;;1.30;;
14092;SDS011;7123;49.468;10.992;2022-07-10T04:32:32;3.33;;;1.30;;
14092;SDS011;7123;49.468;10.992;2022-07-10T04:34:58;4.60;;;1.00;;
14092;SDS011;7123;49.468;10.992;2022-07-10T04:37:27;2.20;;;1.30;;
14092;SDS011;7123;49.468;10.992;2022-07-10T04:39:55;1.53;;;1.10;;
14092;SDS011;7123;49.468;10.992;2022-07-10T04:42:24;4.27;;;1.50;;
14092;SDS011;7123;49.468;10.992;2022-07-10T04:44:52;4.77;;;1.47;;
14092;SDS011;7123;49.468;10.992;2022-07-10T04:47:18;2.57;;;1.27;;
14092;SDS011;7123;49.468;10.992;2022-07-10T04:49:45;4.90;;;1.33;;
14092;SDS011;7123;49.468;10.992;2022-07-10T04:52:12;3.07;;;1.13;;
14092;SDS011;7123;49.468;10.992;2022-07-10T04:54:38;3.40;;;1.50;;
14092;SDS011;7123;49.468;10.992;2022-07-10T04:57:05;2.53;;;1.03;;
14092;SDS011;7123;49.468;10.992;2022-07-10T04:59:32;4.53;;;1.40;;
14092;SDS011;7123;49.468;10.992;2022-07-10T05:01:58;3.37;;;1.07;;
14092;SDS011;7123;49.468;10.992;2022-07-10T05:04:25;3.10;;;1.27;;
14092;SDS011;7123;49.468;10.992;2022-07-10T05:06:52;2.00;;;1.13;;
14092;SDS011;7123;49.468;10.992;2022-07-10T05:09:19;1.97;;;1.20;;
14092;SDS011;7123;49.468;10.992;2022-07-10T05:11:46;3.67;;;1.30;;
14092;SDS011;7123;49.468;10.992;2022-07-10T05:14:13;2.87;;;1.50;;
14092;SDS011;7123;49.468;10.992;2022-07-10T05:16:39;1.90;;;1.20;;
14092;SDS011;7123;49.468;10.992;2022-07-10T05:19:06;2.47;;;1.00;;
14092;SDS011;7123;49.468;10.992;2022-07-10T05:21:33;2.93;;;1.07;;
14092;SDS011;7123;49.468;10.992;2022-07-10T05:24:00;2.10;;;0.83;;
14092;SDS011;7123;49.468;10.992;2022-07-10T05:26:26;3.03;;;1.00;;
14092;SDS011;7123;49.468;10.992;2022-07-10T05:28:53;3.00;;;1.00;;
14092;SDS011;7123;49.468;10.992;2022-07-10T05:31:20;0.73;;;0.73;;
14092;SDS011;7123;49.468;10.992;2022-07-10T05:33:47;4.53;;;1.20;;
14092;SDS011;7123;49.468;10.992;2022-07-10T05:36:13;2.10;;;0.90;;
14092;SDS011;7123;49.468;10.992;2022-07-10T05:38:40;2.67;;;0.80;;
14092;SDS011;7123;49.468;10.992;2022-07-10T05:41:07;1.60;;;0.77;;
14092;SDS011;7123;49.468;10.992;2022-07-10T05:43:34;1.27;;;0.67;;
14092;SDS011;7123;49.468;10.992;2022-07-10T05:46:01;3.27;;;0.70;;
14092;SDS011;7123;49.468;10.992;2022-07-10T05:48:27;1.73;;;0.83;;
14092;SDS011;7123;49.468;10.992;2022-07-10T05:50:54;3.30;;;0.90;;
14092;SDS011;7123;49.468;10.992;2022-07-10T05:53:41;3.10;;;0.90;;
14092;SDS011;7123;49.468;10.992;2022-07-10T05:56:08;1.50;;;0.40;;
14092;SDS011;7123;49.468;10.992;2022-07-10T05:58:35;4.17;;;0.80;;
14092;SDS011;7123;49.468;10.992;2022-07-10T06:01:02;2.07;;;0.90;;
14092;SDS011;7123;49.468;10.992;2022-07-10T06:03:29;2.30;;;0.90;;
14092;SDS011;7123;49.468;10.992;2022-07-10T06:05:56;0.97;;;0.60;;
14092;SDS011;7123;49.468;10.992;2022-07-10T06:08:24;2.00;;;0.60;;
14092;SDS011;7123;49.468;10.992;2022-07-10T06:10:51;4.43;;;0.77;;
14092;SDS011;7123;49.468;10.992;2022-07-10T06:13:18;3.43;;;1.10;;
14092;SDS011;7123;49.468;10.992;2022-07-10T06:15:45;2.17;;;0.80;;
14092;SDS011;7123;49.468;10.992;2022-07-10T06:18:13;2.90;;;0.80;;
14092;SDS011;7123;49.468;10.992;2022-07-10T06:20:39;5.43;;;1.20;;
14092;SDS011;7123;49.468;10.992;2022-07-10T06:23:06;0.80;;;0.80;;
14092;SDS011;7123;49.468;10.992;2022-07-10T06:25:33;2.27;;;1.00;;
14092;SDS011;7123;49.468;10.992;2022-07-10T06:27:59;4.23;;;0.80;;
14092;SDS011;7123;49.468;10.992;2022-07-10T06:30:26;4.13;;;1.10;;
14092;SDS011;7123;49.468;10.992;2022-07-10T06:32:53;1.57;;;0.90;;
14092;SDS011;7123;49.468;10.992;2022-07-10T06:35:20;1.47;;;0.90;;
14092;SDS011;7123;49.468;10.992;2022-07-10T06:37:46;3.20;;;1.20;;
14092;SDS011;7123;49.468;10.992;2022-07-10T06:40:13;2.53;;;1.00;;
14092;SDS011;7123;49.468;10.992;2022-07-10T06:42:40;2.20;;;1.00;;
14092;SDS011;7123;49.468;10.992;2022-07-10T06:45:10;4.90;;;1.10;;
14092;SDS011;7123;49.468;10.992;2022-07-10T06:47:37;2.13;;;0.87;;
14092;SDS011;7123;49.468;10.992;2022-07-10T06:50:24;3.07;;;0.80;;
14092;SDS011;7123;49.468;10.992;2022-07-10T06:52:52;3.93;;;1.10;;
14092;SDS011;7123;49.468;10.992;2022-07-10T06:55:19;3.70;;;0.93;;
14092;SDS011;7123;49.468;10.992;2022-07-10T06:57:47;3.17;;;1.10;;
14092;SDS011;7123;49.468;10.992;2022-07-10T07:00:14;3.80;;;0.90;;
14092;SDS011;7123;49.468;10.992;2022-07-10T07:02:41;4.90;;;1.00;;
14092;SDS011;7123;49.468;10.992;2022-07-10T07:05:09;1.57;;;0.60;;
14092;SDS011;7123;49.468;10.992;2022-07-10T07:07:36;2.30;;;0.60;;
14092;SDS011;7123;49.468;10.992;2022-07-10T07:10:03;6.60;;;1.33;;
14092;SDS011;7123;49.468;10.992;2022-07-10T07:12:31;2.60;;;0.90;;
14092;SDS011;7123;49.468;10.992;2022-07-10T07:14:59;3.37;;;0.90;;
14092;SDS011;7123;49.468;10.992;2022-07-10T07:17:25;0.60;;;0.60;;
14092;SDS011;7123;49.468;10.992;2022-07-10T07:20:00;2.33;;;0.80;;
14092;SDS011;7123;49.468;10.992;2022-07-10T07:22:46;2.03;;;0.70;;
14092;SDS011;7123;49.468;10.992;2022-07-10T07:25:32;0.97;;;0.60;;
14092;SDS011;7123;49.468;10.992;2022-07-10T07:27:58;1.77;;;0.43;;
14092;SDS011;7123;49.468;10.992;2022-07-10T07:30:25;3.23;;;0.90;;
14092;SDS011;7123;49.468;10.992;2022-07-10T07:32:52;1.47;;;0.80;;
14092;SDS011;7123;49.468;10.992;2022-07-10T07:35:18;0.73;;;0.50;;
14092;SDS011;7123;49.468;10.992;2022-07-10T07:37:46;0.40;;;0.40;;
14092;SDS011;7123;49.468;10.992;2022-07-10T07:40:23;0.97;;;0.53;;
14092;SDS011;7123;49.468;10.992;2022-07-10T07:42:50;1.77;;;0.73;;
14092;SDS011;7123;49.468;10.992;2022-07-10T07:45:21;1.93;;;0.80;;
14092;SDS011;7123;49.468;10.992;2022-07-10T07:47:50;1.50;;;0.37;;
14092;SDS011;7123;49.468;10.992;2022-07-10T07:50:24;0.67;;;0.47;;
14092;SDS011;7123;49.468;10.992;2022-07-10T07:52:53;3.00;;;0.50;;
14092;SDS011;7123;49.468;10.992;2022-07-10T07:55:20;1.73;;;0.93;;
14092;SDS011;7123;49.468;10.992;2022-07-10T07:57:48;2.50;;;0.40;;
14092;SDS011;7123;49.468;10.992;2022-07-10T08:00:19;1.47;;;0.70;;
14092;SDS011;7123;49.468;10.992;2022-07-10T08:02:49;2.17;;;0.73;;
14092;SDS011;7123;49.468;10.992;2022-07-10T08:05:17;0.87;;;0.40;;
14092;SDS011;7123;49.468;10.992;2022-07-10T08:07:45;2.97;;;0.60;;
14092;SDS011;7123;49.468;10.992;2022-07-10T08:10:15;1.63;;;0.60;;
14092;SDS011;7123;49.468;10.992;2022-07-10T08:12:43;2.23;;;0.60;;
14092;SDS011;7123;49.468;10.992;2022-07-10T08:15:12;2.70;;;0.80;;
14092;SDS011;7123;49.468;10.992;2022-07-10T08:17:41;1.13;;;0.60;;
14092;SDS011;7123;49.468;10.992;2022-07-10T08:20:10;4.40;;;0.60;;
14092;SDS011;7123;49.468;10.992;2022-07-10T08:22:38;3.13;;;0.53;;
14092;SDS011;7123;49.468;10.992;2022-07-10T08:25:07;0.50;;;0.40;;
14092;SDS011;7123;49.468;10.992;2022-07-10T08:27:34;1.30;;;0.57;;
14092;SDS011;7123;49.468;10.992;2022-07-10T08:30:01;0.53;;;0.40;;
14092;SDS011;7123;49.468;10.992;2022-07-10T08:32:28;3.47;;;0.60;;
14092;SDS011;7123;49.468;10.992;2022-07-10T08:34:55;2.43;;;0.50;;
14092;SDS011;7123;49.468;10.992;2022-07-10T08:37:21;2.40;;;0.63;;
14092;SDS011;7123;49.468;10.992;2022-07-10T08:39:48;0.87;;;0.53;;
14092;SDS011;7123;49.468;10.992;2022-07-10T08:42:15;2.67;;;0.57;;
14092;SDS011;7123;49.468;10.992;2022-07-10T08:44:43;2.03;;;0.60;;
14092;SDS011;7123;49.468;10.992;2022-07-10T08:47:11;1.87;;;0.50;;
14092;SDS011;7123;49.468;10.992;2022-07-10T08:49:40;3.13;;;0.50;;
14092;SDS011;7123;49.468;10.992;2022-07-10T08:52:23;2.03;;;0.40;;
14092;SDS011;7123;49.468;10.992;2022-07-10T08:55:04;0.80;;;0.50;;
14092;SDS011;7123;49.468;10.992;2022-07-10T08:57:31;1.10;;;0.70;;
14092;SDS011;7123;49.468;10.992;2022-07-10T09:00:00;1.07;;;0.30;;
14092;SDS011;7123;49.468;10.992;2022-07-10T09:02:27;1.53;;;0.50;;
14092;SDS011;7123;49.468;10.992;2022-07-10T09:04:54;2.77;;;0.50;;
14092;SDS011;7123;49.468;10.992;2022-07-10T09:07:21;1.47;;;0.37;;
14092;SDS011;7123;49.468;10.992;2022-07-10T09:09:54;1.90;;;0.60;;
14092;SDS011;7123;49.468;10.992;2022-07-10T09:12:23;0.40;;;0.30;;
14092;SDS011;7123;49.468;10.992;2022-07-10T09:14:51;0.90;;;0.60;;
14092;SDS011;7123;49.468;10.992;2022-07-10T09:17:18;0.97;;;0.50;;
14092;SDS011;7123;49.468;10.992;2022-07-10T09:19:45;1.03;;;0.90;;
14092;SDS011;7123;49.468;10.992;2022-07-10T09:22:12;0.60;;;0.40;;
14092;SDS011;7123;49.468;10.992;2022-07-10T09:24:47;0.70;;;0.40;;
14092;SDS011;7123;49.468;10.992;2022-07-10T09:27:14;1.40;;;0.47;;
14092;SDS011;7123;49.468;10.992;2022-07-10T09:29:46;1.53;;;0.40;;
14092;SDS011;7123;49.468;10.992;2022-07-10T09:32:16;0.70;;;0.70;;
14092;SDS011;7123;49.468;10.992;2022-07-10T09:34:50;2.00;;;0.77;;
14092;SDS011;7123;49.468;10.992;2022-07-10T09:37:39;3.20;;;0.73;;
14092;SDS011;7123;49.468;10.992;2022-07-10T09:40:08;0.70;;;0.50;;
14092;SDS011;7123;49.468;10.992;2022-07-10T09:42:36;0.80;;;0.40;;
14092;SDS011;7123;49.468;10.992;2022-07-10T09:47:44;4.60;;;1.00;;
14092;SDS011;7123;49.468;10.992;2022-07-10T09:50:33;2.03;;;0.77;;
14092;SDS011;7123;49.468;10.992;2022-07-10T09:53:01;0.60;;;0.60;;
14092;SDS011;7123;49.468;10.992;2022-07-10T09:55:34;1.27;;;0.70;;
14092;SDS011;7123;49.468;10.992;2022-07-10T09:58:06;1.00;;;0.70;;
14092;SDS011;7123;49.468;10.992;2022-07-10T10:00:35;2.70;;;1.00;;
14092;SDS011;7123;49.468;10.992;2022-07-10T10:03:04;0.87;;;0.77;;
14092;SDS011;7123;49.468;10.992;2022-07-10T10:05:37;1.10;;;0.70;;
14092;SDS011;7123;49.468;10.992;2022-07-10T10:08:28;0.80;;;0.80;;
14092;SDS011;7123;49.468;10.992;2022-07-10T10:10:58;2.07;;;0.67;;
14092;SDS011;7123;49.468;10.992;2022-07-10T10:13:27;0.70;;;0.53;;
14092;SDS011;7123;49.468;10.992;2022-07-10T10:15:56;2.23;;;0.70;;
14092;SDS011;7123;49.468;10.992;2022-07-10T10:18:24;4.20;;;0.90;;
14092;SDS011;7123;49.468;10.992;2022-07-10T10:20:54;1.17;;;1.07;;
14092;SDS011;7123;49.468;10.992;2022-07-10T10:23:22;0.90;;;0.90;;
14092;SDS011;7123;49.468;10.992;2022-07-10T10:25:55;3.10;;;0.70;;
14092;SDS011;7123;49.468;10.992;2022-07-10T10:28:23;1.07;;;0.73;;
14092;SDS011;7123;49.468;10.992;2022-07-10T10:30:52;1.73;;;0.70;;
14092;SDS011;7123;49.468;10.992;2022-07-10T10:36:05;3.43;;;0.73;;
14092;SDS011;7123;49.468;10.992;2022-07-10T10:46:35;3.13;;;0.80;;
14092;SDS011;7123;49.468;10.992;2022-07-10T10:49:48;1.10;;;0.90;;
14092;SDS011;7123;49.468;10.992;2022-07-10T10:52:17;2.47;;;0.80;;
14092;SDS011;7123;49.468;10.992;2022-07-10T11:00:04;1.97;;;0.93;;
14092;SDS011;7123;49.468;10.992;2022-07-10T11:02:36;1.40;;;0.97;;
14092;SDS011;7123;49.468;10.992;2022-07-10T11:07:53;1.47;;;0.90;;
14092;SDS011;7123;49.468;10.992;2022-07-10T11:13:14;1.27;;;0.83;;
14092;SDS011;7123;49.468;10.992;2022-07-10T11:15:45;2.00;;;0.60;;
14092;SDS011;7123;49.468;10.992;2022-07-10T11:20:46;2.13;;;0.93;;
14092;SDS011;7123;49.468;10.992;2022-07-10T11:23:29;1.40;;;1.10;;
14092;SDS011;7123;49.468;10.992;2022-07-10T11:26:28;1.80;;;0.90;;
14092;SDS011;7123;49.468;10.992;2022-07-10T11:29:17;2.77;;;0.90;;
14092;SDS011;7123;49.468;10.992;2022-07-10T11:31:51;0.63;;;0.60;;
14092;SDS011;7123;49.468;10.992;2022-07-10T11:34:20;1.93;;;0.80;;
14092;SDS011;7123;49.468;10.992;2022-07-10T11:36:48;2.10;;;1.00;;
14092;SDS011;7123;49.468;10.992;2022-07-10T11:39:15;2.27;;;0.67;;
14092;SDS011;7123;49.468;10.992;2022-07-10T11:41:45;2.53;;;0.77;;
14092;SDS011;7123;49.468;10.992;2022-07-10T11:44:16;3.27;;;0.90;;
14092;SDS011;7123;49.468;10.992;2022-07-10T11:46:44;2.00;;;1.00;;
14092;SDS011;7123;49.468;10.992;2022-07-10T11:49:16;2.03;;;0.90;;
14092;SDS011;7123;49.468;10.992;2022-07-10T11:51:44;2.17;;;0.97;;
14092;SDS011;7123;49.468;10.992;2022-07-10T11:56:40;0.90;;;0.77;;
14092;SDS011;7123;49.468;10.992;2022-07-10T11:59:09;1.57;;;0.80;;
14092;SDS011;7123;49.468;10.992;2022-07-10T12:04:14;1.20;;;0.70;;
14092;SDS011;7123;49.468;10.992;2022-07-10T12:06:43;2.70;;;0.70;;
14092;SDS011;7123;49.468;10.992;2022-07-10T12:09:18;0.77;;;0.50;;
14092;SDS011;7123;49.468;10.992;2022-07-10T12:11:59;1.10;;;0.50;;
14092;SDS011;7123;49.468;10.992;2022-07-10T12:14:28;0.90;;;0.70;;
14092;SDS011;7123;49.468;10.992;2022-07-10T12:16:55;2.70;;;0.67;;
14092;SDS011;7123;49.468;10.992;2022-07-10T12:21:51;2.50;;;0.67;;
14092;SDS011;7123;49.468;10.992;2022-07-10T12:24:23;2.53;;;0.70;;
14092;SDS011;7123;49.468;10.992;2022-07-10T12:26:51;1.77;;;0.60;;
14092;SDS011;7123;49.468;10.992;2022-07-10T12:29:19;2.97;;;0.87;;
14092;SDS011;7123;49.468;10.992;2022-07-10T12:31:54;1.50;;;1.10;;
14092;SDS011;7123;49.468;10.992;2022-07-10T12:37:24;1.97;;;0.73;;
14092;SDS011;7123;49.468;10.992;2022-07-10T12:39:52;0.80;;;0.50;;
14092;SDS011;7123;49.468;10.992;2022-07-10T12:42:26;1.67;;;0.90;;
14092;SDS011;7123;49.468;10.992;2022-07-10T12:44:54;4.93;;;0.90;;
14092;SDS011;7123;49.468;10.992;2022-07-10T12:47:42;1.80;;;0.70;;
14092;SDS011;7123;49.468;10.992;2022-07-10T12:50:13;0.90;;;0.80;;
14092;SDS011;7123;49.468;10.992;2022-07-10T12:52:44;0.80;;;0.60;;
14092;SDS011;7123;49.468;10.992;2022-07-10T12:55:16;0.73;;;0.60;;
14092;SDS011;7123;49.468;10.992;2022-07-10T12:57:49;1.37;;;0.70;;
14092;SDS011;7123;49.468;10.992;2022-07-10T13:00:26;0.67;;;0.63;;
14092;SDS011;7123;49.468;10.992;2022-07-10T13:05:36;1.40;;;0.90;;
14092;SDS011;7123;49.468;10.992;2022-07-10T13:08:09;3.23;;;0.77;;
14092;SDS011;7123;49.468;10.992;2022-07-10T13:10:39;1.60;;;0.70;;
14092;SDS011;7123;49.468;10.992;2022-07-10T13:13:07;1.23;;;0.50;;
14092;SDS011;7123;49.468;10.992;2022-07-10T13:15:34;0.87;;;0.40;;
14092;SDS011;7123;49.468;10.992;2022-07-10T13:18:07;1.80;;;0.40;;
14092;SDS011;7123;49.468;10.992;2022-07-10T13:20:34;0.40;;;0.40;;
14092;SDS011;7123;49.468;10.992;2022-07-10T13:23:01;2.43;;;0.33;;
14092;SDS011;7123;49.468;10.992;2022-07-10T13:25:28;2.10;;;0.40;;
14092;SDS011;7123;49.468;10.992;2022-07-10T13:27:55;1.70;;;0.47;;
14092;SDS011;7123;49.468;10.992;2022-07-10T13:30:22;2.53;;;0.80;;
14092;SDS011;7123;49.468;10.992;2022-07-10T13:32:48;0.60;;;0.60;;
14092;SDS011;7123;49.468;10.992;2022-07-10T13:35:15;1.43;;;1.00;;
14092;SDS011;7123;49.468;10.992;2022-07-10T13:37:42;1.30;;;0.77;;
14092;SDS011;7123;49.468;10.992;2022-07-10T13:40:09;1.07;;;0.60;;
14092;SDS011;7123;49.468;10.992;2022-07-10T13:42:36;0.50;;;0.50;;
14092;SDS011;7123;49.468;10.992;2022-07-10T13:45:03;0.50;;;0.50;;
14092;SDS011;7123;49.468;10.992;2022-07-10T13:47:31;1.50;;;0.40;;
14092;SDS011;7123;49.468;10.992;2022-07-10T13:49:58;3.37;;;0.73;;
14092;SDS011;7123;49.468;10.992;2022-07-10T13:52:25;1.03;;;0.53;;
14092;SDS011;7123;49.468;10.992;2022-07-10T13:54:52;1.40;;;0.50;;
14092;SDS011;7123;49.468;10.992;2022-07-10T13:57:18;0.70;;;0.50;;
14092;SDS011;7123;49.468;10.992;2022-07-10T13:59:45;1.07;;;0.60;;
14092;SDS011;7123;49.468;10.992;2022-07-10T14:02:12;0.90;;;0.60;;
14092;SDS011;7123;49.468;10.992;2022-07-10T14:04:42;1.47;;;0.70;;
14092;SDS011;7123;49.468;10.992;2022-07-10T14:07:09;1.73;;;0.80;;
14092;SDS011;7123;49.468;10.992;2022-07-10T14:09:35;1.97;;;0.67;;
14092;SDS011;7123;49.468;10.992;2022-07-10T14:12:02;2.30;;;0.70;;
14092;SDS011;7123;49.468;10.992;2022-07-10T14:14:29;0.93;;;0.70;;
14092;SDS011;7123;49.468;10.992;2022-07-10T14:16:56;2.30;;;0.80;;
14092;SDS011;7123;49.468;10.992;2022-07-10T14:19:23;0.90;;;0.80;;
14092;SDS011;7123;49.468;10.992;2022-07-10T14:21:49;2.03;;;0.80;;
14092;SDS011;7123;49.468;10.992;2022-07-10T14:24:16;2.07;;;1.00;;
14092;SDS011;7123;49.468;10.992;2022-07-10T14:26:43;1.30;;;0.70;;
14092;SDS011;7123;49.468;10.992;2022-07-10T14:29:10;3.13;;;0.80;;
14092;SDS011;7123;49.468;10.992;2022-07-10T14:31:36;1.90;;;0.70;;
14092;SDS011;7123;49.468;10.992;2022-07-10T14:34:05;3.07;;;0.67;;
14092;SDS011;7123;49.468;10.992;2022-07-10T14:36:32;0.83;;;0.67;;
14092;SDS011;7123;49.468;10.992;2022-07-10T14:38:59;1.73;;;0.70;;
14092;SDS011;7123;49.468;10.992;2022-07-10T14:41:25;0.60;;;0.60;;
14092;SDS011;7123;49.468;10.992;2022-07-10T14:43:52;0.87;;;0.80;;
14092;SDS011;7123;49.468;10.992;2022-07-10T14:46:19;1.87;;;0.60;;
14092;SDS011;7123;49.468;10.992;2022-07-10T14:48:46;1.87;;;0.73;;
14092;SDS011;7123;49.468;10.992;2022-07-10T14:51:13;1.13;;;0.53;;
14092;SDS011;7123;49.468;10.992;2022-07-10T14:53:41;1.30;;;0.90;;
14092;SDS011;7123;49.468;10.992;2022-07-10T14:56:10;1.10;;;0.67;;
14092;SDS011;7123;49.468;10.992;2022-07-10T14:58:37;1.03;;;0.77;;
14092;SDS011;7123;49.468;10.992;2022-07-10T15:01:24;2.30;;;0.90;;
14092;SDS011;7123;49.468;10.992;2022-07-10T15:03:51;3.03;;;1.00;;
14092;SDS011;7123;49.468;10.992;2022-07-10T15:06:19;0.93;;;0.70;;
14092;SDS011;7123;49.468;10.992;2022-07-10T15:08:46;0.80;;;0.80;;
14092;SDS011;7123;49.468;10.992;2022-07-10T15:11:17;2.53;;;0.60;;
14092;SDS011;7123;49.468;10.992;2022-07-10T15:13:47;0.80;;;0.80;;
14092;SDS011;7123;49.468;10.992;2022-07-10T15:16:24;2.27;;;0.80;;
14092;SDS011;7123;49.468;10.992;2022-07-10T15:18:56;1.17;;;0.60;;
14092;SDS011;7123;49.468;10.992;2022-07-10T15:21:23;0.60;;;0.60;;
14092;SDS011;7123;49.468;10.992;2022-07-10T15:23:50;2.63;;;0.80;;
14092;SDS011;7123;49.468;10.992;2022-07-10T15:26:17;1.60;;;0.77;;
14092;SDS011;7123;49.468;10.992;2022-07-10T15:28:44;0.97;;;0.60;;
14092;SDS011;7123;49.468;10.992;2022-07-10T15:31:10;2.30;;;0.70;;
14092;SDS011;7123;49.468;10.992;2022-07-10T15:33:37;2.23;;;1.00;;
14092;SDS011;7123;49.468;10.992;2022-07-10T15:36:10;1.30;;;0.60;;
14092;SDS011;7123;49.468;10.992;2022-07-10T15:38:38;1.40;;;0.80;;